Time;durP1;ratioP1;P1;durP2;ratioP2;P2;SDS_P1;SDS_P2;PMS_P1;PMS_P2;Temp;Humidity;BMP_temperature;BMP_pressure;BME280_temperature;BME280_humidity;BME280_pressure;Samples;Min_cycle;Max_cycle;Signal;HPM_P1;HPM_P2
2021/10/12 00:01:01;;;;;;;11.52;3.92;;;12.00;93.50;;;;;;5047940;28;20032;-79
2021/10/12 00:03:27;;;;;;;15.43;4.15;;;12.00;93.50;;;;;;5030141;28;20066;-79
2021/10/12 00:05:53;;;;;;;14.00;4.40;;;12.00;93.40;;;;;;5039901;28;20076;-79
2021/10/12 00:08:19;;;;;;;9.60;3.80;;;12.00;93.50;;;;;;5038893;27;20021;-79
2021/10/12 00:10:44;;;;;;;15.48;4.82;;;12.00;93.50;;;;;;5060518;28;20037;-79
2021/10/12 00:13:10;;;;;;;18.83;4.70;;;11.90;93.50;;;;;;5033906;28;20101;-79
2021/10/12 00:15:36;;;;;;;11.63;4.00;;;12.00;93.50;;;;;;5033783;28;20028;-79
2021/10/12 00:18:02;;;;;;;16.85;3.90;;;12.00;93.50;;;;;;5051281;28;20031;-79
2021/10/12 00:20:28;;;;;;;14.25;4.05;;;11.90;93.50;;;;;;5017276;28;20025;-79
2021/10/12 00:22:53;;;;;;;11.40;4.03;;;11.90;93.50;;;;;;5030947;28;20101;-79
2021/10/12 00:25:20;;;;;;;12.80;3.80;;;11.90;93.50;;;;;;5051453;28;20029;-79
2021/10/12 00:27:46;;;;;;;12.32;3.92;;;11.90;93.50;;;;;;5051368;28;20017;-79
2021/10/12 00:30:11;;;;;;;14.25;4.30;;;11.90;93.60;;;;;;5051498;28;20093;-79
2021/10/12 00:32:37;;;;;;;11.40;3.40;;;11.90;93.60;;;;;;5033106;28;20041;-79
2021/10/12 00:35:04;;;;;;;11.25;4.20;;;11.90;93.60;;;;;;5033274;28;20394;-79
2021/10/12 00:37:30;;;;;;;13.65;4.30;;;11.90;93.60;;;;;;5033294;28;20116;-79
2021/10/12 00:39:56;;;;;;;13.02;4.03;;;11.90;93.60;;;;;;5049999;28;20104;-79
2021/10/12 00:42:22;;;;;;;9.52;3.33;;;11.90;93.80;;;;;;5034045;28;20065;-79
2021/10/12 00:44:48;;;;;;;17.25;3.92;;;11.90;93.60;;;;;;5033471;28;20762;-79
2021/10/12 00:47:14;;;;;;;11.45;3.55;;;11.90;93.60;;;;;;5051451;28;20041;-79
2021/10/12 00:49:40;;;;;;;11.05;3.97;;;11.90;93.60;;;;;;5033234;28;20036;-79
2021/10/12 00:52:06;;;;;;;15.93;4.55;;;11.90;93.60;;;;;;5016827;28;20104;-79
2021/10/12 00:54:32;;;;;;;20.65;5.20;;;11.90;93.60;;;;;;5027238;28;20072;-79
2021/10/12 00:56:58;;;;;;;9.02;4.30;;;11.90;93.60;;;;;;5050865;28;20029;-79
2021/10/12 00:59:23;;;;;;;10.70;4.97;;;11.90;93.60;;;;;;5032871;28;20033;-79
2021/10/12 01:01:49;;;;;;;17.60;4.45;;;11.90;93.60;;;;;;5033293;28;20037;-79
2021/10/12 01:04:15;;;;;;;14.63;4.60;;;11.90;93.60;;;;;;5044153;28;20618;-79
2021/10/12 01:06:41;;;;;;;15.90;4.38;;;11.90;93.60;;;;;;5051045;28;20029;-79
2021/10/12 01:09:07;;;;;;;14.02;4.97;;;11.80;93.60;;;;;;5033001;28;20040;-79
2021/10/12 01:11:35;;;;;;;21.50;5.43;;;11.80;93.60;;;;;;5026783;28;20047;-78
2021/10/12 01:14:02;;;;;;;12.52;4.65;;;11.80;93.60;;;;;;5032988;28;20025;-79
2021/10/12 01:16:27;;;;;;;12.43;4.05;;;11.80;93.70;;;;;;5033232;28;20488;-79
2021/10/12 01:19:01;;;;;;;11.27;4.28;;;11.80;93.70;;;;;;5050655;28;20112;-79
2021/10/12 01:21:29;;;;;;;13.52;4.82;;;11.80;93.70;;;;;;5045574;28;20021;-79
2021/10/12 01:23:56;;;;;;;14.18;4.38;;;11.80;93.70;;;;;;5016530;28;20037;-79
2021/10/12 01:26:22;;;;;;;18.90;4.85;;;11.80;93.70;;;;;;5030478;28;20358;-79
2021/10/12 01:28:48;;;;;;;20.80;5.70;;;11.80;93.70;;;;;;5029916;28;20041;-79
2021/10/12 01:31:22;;;;;;;14.48;5.10;;;11.80;93.80;;;;;;5046470;28;20028;-79
2021/10/12 01:33:47;;;;;;;13.07;4.55;;;11.80;93.80;;;;;;5046427;28;20091;-79
2021/10/12 01:36:13;;;;;;;10.65;5.28;;;11.80;93.70;;;;;;5044225;28;20057;-79
2021/10/12 01:38:40;;;;;;;13.15;4.57;;;11.80;93.70;;;;;;5046902;28;20021;-79
2021/10/12 01:41:05;;;;;;;14.50;4.65;;;11.80;93.80;;;;;;5022595;28;20378;-79
2021/10/12 01:43:31;;;;;;;10.80;4.55;;;11.80;93.70;;;;;;5031891;28;20040;-79
2021/10/12 01:46:02;;;;;;;15.55;4.88;;;11.80;93.70;;;;;;5050354;28;20112;-79
2021/10/12 01:48:27;;;;;;;14.05;4.40;;;11.80;93.70;;;;;;5030539;28;20025;-79
2021/10/12 01:50:53;;;;;;;16.50;6.15;;;11.80;93.70;;;;;;5024069;28;20058;-79
2021/10/12 01:53:19;;;;;;;15.88;5.05;;;11.70;93.70;;;;;;5032284;28;20074;-79
2021/10/12 01:55:45;;;;;;;14.80;5.15;;;11.70;93.70;;;;;;5050095;28;20027;-79
2021/10/12 01:58:10;;;;;;;20.40;5.47;;;11.70;93.70;;;;;;5042156;28;20402;-79
2021/10/12 02:00:36;;;;;;;14.45;5.18;;;11.70;93.70;;;;;;5039147;28;20032;-79
2021/10/12 02:03:02;;;;;;;16.25;5.57;;;11.70;93.80;;;;;;5050081;28;20419;-79
2021/10/12 02:05:28;;;;;;;17.67;5.90;;;11.60;93.80;;;;;;5040157;28;20881;-79
2021/10/12 02:07:54;;;;;;;17.30;5.78;;;11.70;93.80;;;;;;5032242;28;20115;-79
2021/10/12 02:10:20;;;;;;;15.98;5.05;;;11.60;93.70;;;;;;5037711;27;20401;-79
2021/10/12 02:12:48;;;;;;;12.00;4.38;;;11.60;93.70;;;;;;5046116;28;20112;-79
2021/10/12 02:15:14;;;;;;;17.17;5.63;;;11.60;93.70;;;;;;5036697;28;20033;-79
2021/10/12 02:17:40;;;;;;;17.25;6.22;;;11.60;93.70;;;;;;5031583;28;21020;-79
2021/10/12 02:20:08;;;;;;;15.30;5.63;;;11.60;93.80;;;;;;5049902;28;20081;-79
2021/10/12 02:22:34;;;;;;;22.67;6.80;;;11.60;93.80;;;;;;5049759;28;20025;-79
2021/10/12 02:25:01;;;;;;;16.60;5.40;;;11.60;93.80;;;;;;5049762;28;20033;-79
2021/10/12 02:27:27;;;;;;;21.23;6.95;;;11.60;93.80;;;;;;5049473;28;20116;-79
2021/10/12 02:29:53;;;;;;;11.95;6.10;;;11.60;93.80;;;;;;5049349;28;20477;-79
2021/10/12 02:32:19;;;;;;;12.75;4.80;;;11.50;93.80;;;;;;5049160;28;20036;-78
2021/10/12 02:34:45;;;;;;;14.35;5.80;;;11.50;93.80;;;;;;5049577;28;20060;-79
2021/10/12 02:37:11;;;;;;;22.35;6.70;;;11.50;93.80;;;;;;5030934;28;20385;-79
2021/10/12 02:39:37;;;;;;;16.20;5.88;;;11.50;93.80;;;;;;5041552;28;20029;-79
2021/10/12 02:42:03;;;;;;;19.83;6.20;;;11.50;93.80;;;;;;5031573;28;20048;-79
2021/10/12 02:44:29;;;;;;;20.38;5.68;;;11.50;93.80;;;;;;5049452;28;20021;-79
2021/10/12 02:46:55;;;;;;;17.58;5.88;;;11.50;93.80;;;;;;5052303;28;20025;-79
2021/10/12 02:49:20;;;;;;;21.40;6.10;;;11.40;93.70;;;;;;5067431;27;20033;-79
2021/10/12 02:51:46;;;;;;;16.70;6.03;;;11.40;93.70;;;;;;5046484;28;20104;-79
2021/10/12 02:54:12;;;;;;;15.88;5.20;;;11.40;93.80;;;;;;5028110;28;20033;-79
2021/10/12 02:56:38;;;;;;;12.50;5.53;;;11.40;93.80;;;;;;5046179;28;20100;-79
2021/10/12 02:59:03;;;;;;;20.05;6.05;;;11.40;93.80;;;;;;5005787;28;20025;-79
2021/10/12 03:01:29;;;;;;;9.52;4.70;;;11.40;93.80;;;;;;5027756;28;20059;-79
2021/10/12 03:03:54;;;;;;;17.90;4.75;;;11.40;93.80;;;;;;5011280;28;20037;-79
2021/10/12 03:06:20;;;;;;;19.40;5.50;;;11.40;93.90;;;;;;5013505;28;20033;-79
2021/10/12 03:08:46;;;;;;;18.35;6.05;;;11.40;93.80;;;;;;5029423;28;20108;-79
2021/10/12 03:11:12;;;;;;;17.80;5.18;;;11.40;93.80;;;;;;5046835;28;20025;-79
2021/10/12 03:13:37;;;;;;;13.93;5.22;;;11.40;93.80;;;;;;5028131;28;20370;-79
2021/10/12 03:16:04;;;;;;;12.82;5.03;;;11.40;93.80;;;;;;5045153;28;20033;-79
2021/10/12 03:18:31;;;;;;;12.85;4.85;;;11.40;93.80;;;;;;5047725;28;20026;-79
2021/10/12 03:20:57;;;;;;;21.08;6.07;;;11.40;93.80;;;;;;5029122;28;20109;-79
2021/10/12 03:23:23;;;;;;;14.43;5.25;;;11.40;93.80;;;;;;5028271;28;20480;-79
2021/10/12 03:25:49;;;;;;;13.43;4.53;;;11.40;93.80;;;;;;5027220;28;20033;-79
2021/10/12 03:28:14;;;;;;;14.68;5.13;;;11.40;93.80;;;;;;5026932;28;20033;-79
2021/10/12 03:30:40;;;;;;;18.50;5.25;;;11.40;93.90;;;;;;5029080;28;20059;-79
2021/10/12 03:33:06;;;;;;;19.88;5.10;;;11.40;93.90;;;;;;5041786;28;20139;-79
2021/10/12 03:35:35;;;;;;;11.40;4.45;;;11.40;93.90;;;;;;5030062;28;20103;-79
2021/10/12 03:38:02;;;;;;;16.38;5.07;;;11.40;94.00;;;;;;5014154;28;20125;-79
2021/10/12 03:40:28;;;;;;;16.23;4.72;;;11.40;94.00;;;;;;5048381;28;20104;-79
2021/10/12 03:42:54;;;;;;;13.70;4.40;;;11.40;94.00;;;;;;5030517;28;20373;-79
2021/10/12 03:45:20;;;;;;;15.18;4.70;;;11.30;93.90;;;;;;5032665;28;20036;-79
2021/10/12 03:47:46;;;;;;;17.83;4.80;;;11.30;94.00;;;;;;5048828;28;20032;-79
2021/10/12 03:50:12;;;;;;;16.65;4.38;;;11.30;94.00;;;;;;5048477;28;20029;-79
2021/10/12 03:52:37;;;;;;;14.95;4.32;;;11.30;94.00;;;;;;5030723;28;20073;-79
2021/10/12 03:55:03;;;;;;;15.68;3.75;;;11.30;94.00;;;;;;5030863;28;20029;-79
2021/10/12 03:57:29;;;;;;;14.27;4.18;;;11.30;94.00;;;;;;5048329;28;20029;-79
2021/10/12 03:59:55;;;;;;;18.88;4.13;;;11.20;94.00;;;;;;5051641;28;20545;-79
2021/10/12 04:02:20;;;;;;;9.80;3.60;;;11.30;94.00;;;;;;5051891;28;20389;-79
2021/10/12 04:04:46;;;;;;;15.15;3.67;;;11.30;94.00;;;;;;5017608;28;20033;-79
2021/10/12 04:07:11;;;;;;;15.93;4.05;;;11.30;94.00;;;;;;5051527;28;20025;-79
2021/10/12 04:09:37;;;;;;;18.42;4.40;;;11.30;94.00;;;;;;5033647;28;20029;-79
2021/10/12 04:12:03;;;;;;;15.25;3.85;;;11.30;94.00;;;;;;5045372;28;20055;-79
2021/10/12 04:14:29;;;;;;;23.70;4.13;;;11.30;94.00;;;;;;5038156;28;20078;-79
2021/10/12 04:16:54;;;;;;;11.45;3.83;;;11.30;94.00;;;;;;5050088;28;20033;-79
2021/10/12 04:19:20;;;;;;;13.95;3.88;;;11.30;94.00;;;;;;5048707;28;20101;-79
2021/10/12 04:21:45;;;;;;;14.82;4.35;;;11.30;94.00;;;;;;5014011;28;20060;-79
2021/10/12 04:24:11;;;;;;;15.50;4.03;;;11.30;94.00;;;;;;5021099;28;20030;-80
2021/10/12 04:26:38;;;;;;;14.68;4.13;;;11.30;94.00;;;;;;5050159;28;20036;-79
2021/10/12 04:29:04;;;;;;;11.00;3.95;;;11.20;94.00;;;;;;5030385;28;20055;-79
2021/10/12 04:31:31;;;;;;;14.63;4.10;;;11.30;94.00;;;;;;5049070;28;20041;-79
2021/10/12 04:33:57;;;;;;;12.15;4.15;;;11.20;94.00;;;;;;5048701;28;20152;-79
2021/10/12 04:36:23;;;;;;;19.35;4.60;;;11.20;94.00;;;;;;5028345;28;20042;-79
2021/10/12 04:38:48;;;;;;;9.55;4.05;;;11.20;94.00;;;;;;5030168;28;20073;-79
2021/10/12 04:41:14;;;;;;;15.05;3.83;;;11.30;94.10;;;;;;5042056;28;20611;-79
2021/10/12 04:43:40;;;;;;;17.17;3.97;;;11.30;94.10;;;;;;5048092;28;20538;-79
2021/10/12 04:46:06;;;;;;;13.45;4.03;;;11.20;94.00;;;;;;5031922;28;20033;-79
2021/10/12 04:48:32;;;;;;;13.13;3.70;;;11.20;94.00;;;;;;5032268;28;20045;-79
2021/10/12 04:50:58;;;;;;;11.73;3.38;;;11.20;94.00;;;;;;5051099;28;20025;-79
2021/10/12 04:53:23;;;;;;;13.07;3.60;;;11.30;94.10;;;;;;5016647;28;20097;-79
2021/10/12 04:55:49;;;;;;;12.35;3.75;;;11.30;94.10;;;;;;5016894;28;20025;-79
2021/10/12 04:58:15;;;;;;;8.30;3.60;;;11.30;94.10;;;;;;5033768;28;20037;-79
2021/10/12 05:00:40;;;;;;;11.35;3.42;;;11.30;94.10;;;;;;5050936;28;20017;-79
2021/10/12 05:03:06;;;;;;;12.07;3.58;;;11.30;94.10;;;;;;5050926;28;20056;-79
2021/10/12 05:05:32;;;;;;;10.35;3.70;;;11.30;94.10;;;;;;5051124;28;20378;-79
2021/10/12 05:07:58;;;;;;;11.75;3.90;;;11.30;94.00;;;;;;5022318;28;20040;-79
2021/10/12 05:10:24;;;;;;;11.93;3.55;;;11.30;94.00;;;;;;5050201;28;20108;-79
2021/10/12 05:12:50;;;;;;;8.73;3.33;;;11.30;94.00;;;;;;5050567;27;20109;-79
2021/10/12 05:15:22;;;;;;;12.55;3.83;;;11.30;94.00;;;;;;5050631;28;20028;-78
2021/10/12 05:17:51;;;;;;;14.95;4.57;;;11.30;94.00;;;;;;5034397;28;20120;-78
2021/10/12 05:20:18;;;;;;;15.02;3.80;;;11.30;94.00;;;;;;5039142;27;20047;-79
2021/10/12 05:22:44;;;;;;;14.73;3.92;;;11.30;94.00;;;;;;5017877;28;20577;-79
2021/10/12 05:25:10;;;;;;;9.35;3.35;;;11.30;94.00;;;;;;5050603;28;20037;-79
2021/10/12 05:27:37;;;;;;;10.90;4.28;;;11.30;94.10;;;;;;5032654;28;20124;-79
2021/10/12 05:30:05;;;;;;;13.95;4.03;;;11.30;94.10;;;;;;5016577;28;20086;-79
2021/10/12 05:32:31;;;;;;;12.23;4.03;;;11.30;94.10;;;;;;5032494;28;20033;-79
2021/10/12 05:35:00;;;;;;;14.32;4.45;;;11.30;94.10;;;;;;5030281;28;20484;-79
2021/10/12 05:37:26;;;;;;;13.68;4.22;;;11.30;94.10;;;;;;5040267;28;20073;-79
2021/10/12 05:39:51;;;;;;;13.52;4.30;;;11.30;94.20;;;;;;5030733;28;20734;-79
2021/10/12 05:42:17;;;;;;;13.10;4.22;;;11.30;94.20;;;;;;5031972;28;20067;-79
2021/10/12 05:44:42;;;;;;;12.90;4.63;;;11.30;94.20;;;;;;5030092;28;20033;-79
2021/10/12 05:47:08;;;;;;;12.68;4.35;;;11.30;94.20;;;;;;5047865;28;20029;-79
2021/10/12 05:49:36;;;;;;;14.02;4.18;;;11.30;94.20;;;;;;5032424;28;20389;-79
2021/10/12 05:52:03;;;;;;;12.18;4.05;;;11.30;94.20;;;;;;5032533;28;20116;-79
2021/10/12 05:54:31;;;;;;;16.48;5.00;;;11.30;94.20;;;;;;5050434;28;20381;-79
2021/10/12 05:57:04;;;;;;;13.63;4.25;;;11.30;94.30;;;;;;5025822;28;20036;-79
2021/10/12 05:59:29;;;;;;;12.52;3.97;;;11.30;94.30;;;;;;5025270;28;20041;-79
2021/10/12 06:01:55;;;;;;;20.52;5.07;;;11.30;94.30;;;;;;5024020;28;20470;-79
2021/10/12 06:04:20;;;;;;;12.13;4.13;;;11.30;94.30;;;;;;5013039;28;20110;-79
2021/10/12 06:06:46;;;;;;;15.05;4.60;;;11.30;94.30;;;;;;5013226;28;20367;-79
2021/10/12 06:09:12;;;;;;;14.57;4.63;;;11.30;94.30;;;;;;4996750;28;20030;-79
2021/10/12 06:11:37;;;;;;;15.65;5.03;;;11.30;94.30;;;;;;5013189;28;20030;-79
2021/10/12 06:14:03;;;;;;;17.70;5.15;;;11.30;94.40;;;;;;4996885;28;20120;-79
2021/10/12 06:16:29;;;;;;;19.30;5.22;;;11.40;94.40;;;;;;5012919;28;20116;-79
2021/10/12 06:18:55;;;;;;;17.42;5.00;;;11.40;94.40;;;;;;5029576;28;20470;-79
2021/10/12 06:21:20;;;;;;;14.40;4.90;;;11.40;94.40;;;;;;5029469;28;20026;-79
2021/10/12 06:23:46;;;;;;;15.25;5.20;;;11.40;94.40;;;;;;5030420;28;20026;-79
2021/10/12 06:26:11;;;;;;;19.98;5.38;;;11.40;94.40;;;;;;5012512;28;20057;-79
2021/10/12 06:28:37;;;;;;;12.10;4.40;;;11.40;94.40;;;;;;4996557;28;20121;-79
2021/10/12 06:31:03;;;;;;;20.52;5.85;;;11.40;94.40;;;;;;5030249;28;20053;-79
2021/10/12 06:33:29;;;;;;;15.50;5.40;;;11.40;94.40;;;;;;5030339;28;20059;-79
2021/10/12 06:35:54;;;;;;;14.80;4.82;;;11.40;94.40;;;;;;5029934;28;20478;-79
2021/10/12 06:38:20;;;;;;;27.33;6.32;;;11.40;94.40;;;;;;5030257;28;20363;-79
2021/10/12 06:40:46;;;;;;;16.17;5.05;;;11.40;94.40;;;;;;5012369;28;20133;-79
2021/10/12 06:43:11;;;;;;;24.02;6.68;;;11.40;94.40;;;;;;5012796;28;20029;-79
2021/10/12 06:45:37;;;;;;;23.20;6.63;;;11.40;94.50;;;;;;5030201;28;20030;-79
2021/10/12 06:48:04;;;;;;;12.68;5.63;;;11.40;94.50;;;;;;5012484;28;20506;-79
2021/10/12 06:50:30;;;;;;;17.42;6.10;;;11.40;94.50;;;;;;5029876;28;20025;-79
2021/10/12 06:52:56;;;;;;;23.40;7.55;;;11.40;94.50;;;;;;5029541;28;20041;-79
2021/10/12 06:55:21;;;;;;;15.65;7.00;;;11.40;94.50;;;;;;5012263;28;20056;-79
2021/10/12 06:57:48;;;;;;;19.58;7.25;;;11.50;94.60;;;;;;5029928;28;20083;-79
2021/10/12 07:00:15;;;;;;;18.52;8.30;;;11.40;94.60;;;;;;5012343;28;20045;-79
2021/10/12 07:02:46;;;;;;;15.15;6.82;;;11.50;94.60;;;;;;5012111;28;20036;-79
2021/10/12 07:05:13;;;;;;;19.75;8.60;;;11.50;94.60;;;;;;5029733;28;20034;-79
2021/10/12 07:07:39;;;;;;;20.77;8.23;;;11.50;94.60;;;;;;5045049;28;20474;-79
2021/10/12 07:10:07;;;;;;;20.40;9.30;;;11.50;94.60;;;;;;5029791;28;20044;-79
2021/10/12 07:12:33;;;;;;;21.60;8.70;;;11.50;94.60;;;;;;5029477;28;20513;-79
2021/10/12 07:14:59;;;;;;;18.60;8.93;;;11.50;94.60;;;;;;5029943;28;20026;-79
2021/10/12 07:17:25;;;;;;;24.58;10.50;;;11.50;94.60;;;;;;5030960;28;20029;-79
2021/10/12 07:19:50;;;;;;;22.52;9.40;;;11.50;94.70;;;;;;5132537;27;20036;-79
2021/10/12 07:22:19;;;;;;;26.50;10.88;;;11.50;94.60;;;;;;5029756;28;20057;-79
2021/10/12 07:24:45;;;;;;;;;;;11.60;94.70;;;;;;5031943;28;20021;-79
2021/10/12 07:27:11;;;;;;;23.75;9.70;;;11.60;94.60;;;;;;5029157;28;19958;-79
2021/10/12 07:29:36;;;;;;;25.70;9.63;;;11.60;94.60;;;;;;5004903;27;20421;-79
2021/10/12 07:32:02;;;;;;;25.10;10.98;;;11.60;94.60;;;;;;5074460;28;20022;-79
2021/10/12 07:34:28;;;;;;;24.50;11.52;;;11.60;94.60;;;;;;5032987;28;20648;-79
2021/10/12 07:36:53;;;;;;;26.33;12.27;;;11.60;94.60;;;;;;4999047;28;20029;-79
2021/10/12 07:39:19;;;;;;;21.58;9.98;;;11.60;94.60;;;;;;4999637;28;20484;-79
2021/10/12 07:41:44;;;;;;;22.67;11.20;;;11.60;94.60;;;;;;5013213;28;20029;-79
2021/10/12 07:44:10;;;;;;;25.20;12.38;;;11.70;94.60;;;;;;5030336;28;20025;-79
2021/10/12 07:46:36;;;;;;;24.30;10.88;;;11.70;94.70;;;;;;5012731;28;20041;-79
2021/10/12 07:49:02;;;;;;;21.95;10.85;;;11.70;94.60;;;;;;5012544;28;20451;-79
2021/10/12 07:51:28;;;;;;;22.98;11.85;;;11.70;94.60;;;;;;5013775;28;20040;-79
2021/10/12 07:54:12;;;;;;;25.50;11.27;;;11.70;94.60;;;;;;5014260;28;20481;-79
2021/10/12 07:56:37;;;;;;;22.98;10.40;;;11.80;94.70;;;;;;5031911;28;20104;-79
2021/10/12 07:59:05;;;;;;;21.75;11.77;;;11.80;94.70;;;;;;5032513;28;20660;-79
2021/10/12 08:01:32;;;;;;;23.17;11.63;;;11.80;94.60;;;;;;5016029;28;20028;-79
2021/10/12 08:03:58;;;;;;;22.70;11.10;;;11.80;94.60;;;;;;5032198;28;20038;-79
2021/10/12 08:06:24;;;;;;;22.25;11.75;;;11.90;94.70;;;;;;5032705;28;20065;-79
2021/10/12 08:08:50;;;;;;;32.83;12.25;;;11.90;94.70;;;;;;5032491;28;20089;-79
2021/10/12 08:11:17;;;;;;;23.40;12.45;;;11.90;94.70;;;;;;5017415;28;20033;-79
2021/10/12 08:13:43;;;;;;;19.58;11.57;;;11.90;94.70;;;;;;5032258;28;20032;-79
2021/10/12 08:16:09;;;;;;;21.73;11.50;;;11.90;94.70;;;;;;5039633;28;20738;-79
2021/10/12 08:18:36;;;;;;;22.85;11.82;;;12.00;94.70;;;;;;5032225;28;20022;-79
2021/10/12 08:21:01;;;;;;;21.52;11.75;;;12.00;94.60;;;;;;5014598;28;20032;-79
2021/10/12 08:23:27;;;;;;;25.38;13.00;;;12.00;94.50;;;;;;5031186;28;20037;-79
2021/10/12 08:25:53;;;;;;;25.23;12.02;;;12.00;94.60;;;;;;5034455;28;20124;-79
2021/10/12 08:28:18;;;;;;;27.80;12.48;;;11.90;94.60;;;;;;5052010;28;20036;-79
2021/10/12 08:30:44;;;;;;;25.42;12.25;;;12.00;94.70;;;;;;5022840;28;20029;-79
2021/10/12 08:33:10;;;;;;;28.42;13.00;;;12.00;94.80;;;;;;5046976;28;20104;-79
2021/10/12 08:35:36;;;;;;;21.35;11.65;;;12.10;94.80;;;;;;5009559;28;20030;-79
2021/10/12 08:38:01;;;;;;;28.45;12.02;;;12.10;94.70;;;;;;5025939;28;20020;-79
2021/10/12 08:40:29;;;;;;;26.98;11.90;;;12.20;94.70;;;;;;5017543;28;20022;-79
2021/10/12 08:42:58;;;;;;;25.98;12.70;;;12.20;94.70;;;;;;5020906;28;20410;-79
2021/10/12 08:45:24;;;;;;;23.88;12.57;;;12.30;94.70;;;;;;5008594;28;20039;-79
2021/10/12 08:47:51;;;;;;;29.80;13.13;;;12.30;94.70;;;;;;5016004;28;20041;-79
2021/10/12 08:50:21;;;;;;;28.13;13.60;;;12.40;94.70;;;;;;5011725;28;20386;-79
2021/10/12 08:52:47;;;;;;;27.50;13.02;;;12.40;94.60;;;;;;5028127;28;20021;-79
2021/10/12 08:55:14;;;;;;;28.80;13.27;;;12.40;94.70;;;;;;5028949;28;20116;-79
2021/10/12 08:57:45;;;;;;;21.77;9.77;;;12.40;94.70;;;;;;5030230;28;20098;-79
2021/10/12 09:00:12;;;;;;;28.98;10.55;;;12.50;94.70;;;;;;5031486;28;20474;-79
2021/10/12 09:05:54;;;;;;;26.95;10.68;;;12.50;94.80;;;;;;5031376;28;20482;-79
2021/10/12 09:08:40;;;;;;;28.25;11.15;;;12.60;94.70;;;;;;5031511;28;20037;-79
2021/10/12 09:11:23;;;;;;;27.45;10.35;;;12.60;94.80;;;;;;5031732;28;20129;-79
2021/10/12 09:13:51;;;;;;;22.23;10.32;;;12.60;94.70;;;;;;5014420;28;20484;-80
2021/10/12 09:16:18;;;;;;;24.48;10.88;;;12.60;94.70;;;;;;5014126;28;20026;-80
2021/10/12 09:18:46;;;;;;;22.13;11.15;;;12.60;94.70;;;;;;5031627;28;20029;-80
2021/10/12 09:21:34;;;;;;;22.38;11.27;;;12.70;94.70;;;;;;5013798;28;20068;-80
2021/10/12 09:24:10;;;;;;;31.77;11.23;;;12.70;94.80;;;;;;5034430;28;20071;-80
2021/10/12 09:26:41;;;;;;;24.38;10.25;;;12.70;94.80;;;;;;5031390;28;20057;-80
2021/10/12 09:29:22;;;;;;;29.58;12.55;;;12.70;94.80;;;;;;5031533;28;20018;-80
2021/10/12 09:31:47;;;;;;;21.75;10.00;;;12.70;94.80;;;;;;5031361;28;20033;-80
2021/10/12 09:34:15;;;;;;;32.75;12.60;;;12.80;94.90;;;;;;5030981;28;20414;-80
2021/10/12 09:36:50;;;;;;;25.83;11.23;;;12.90;94.90;;;;;;5030935;28;20490;-80
2021/10/12 09:39:31;;;;;;;21.65;11.02;;;13.00;95.00;;;;;;5031152;28;20033;-80
2021/10/12 09:42:07;;;;;;;29.25;11.05;;;13.20;95.00;;;;;;5012910;28;20026;-80
2021/10/12 09:44:34;;;;;;;17.98;9.60;;;13.20;94.80;;;;;;5030602;28;20022;-80
2021/10/12 09:47:13;;;;;;;20.55;9.32;;;13.30;94.70;;;;;;5030279;28;20029;-80
2021/10/12 09:49:39;;;;;;;18.42;8.48;;;13.30;94.70;;;;;;5098238;28;20474;-80
2021/10/12 09:52:06;;;;;;;26.13;10.07;;;13.40;94.60;;;;;;5030424;28;20078;-80
2021/10/12 09:54:38;;;;;;;22.25;10.02;;;13.40;94.60;;;;;;5030490;28;20039;-80
2021/10/12 09:57:06;;;;;;;20.55;9.40;;;13.40;94.60;;;;;;5029077;28;20021;-80
2021/10/12 09:59:33;;;;;;;17.20;8.48;;;13.40;94.60;;;;;;5029877;28;20060;-80
2021/10/12 10:02:00;;;;;;;21.63;9.80;;;13.50;94.70;;;;;;5029674;28;20113;-80
2021/10/12 10:04:28;;;;;;;22.50;10.20;;;13.60;94.80;;;;;;5096675;27;20055;-80
2021/10/12 10:07:02;;;;;;;21.17;9.50;;;13.70;94.70;;;;;;5134112;27;20159;-80
2021/10/12 10:09:30;;;;;;;20.58;9.38;;;13.80;94.60;;;;;;5133894;27;20102;-80
2021/10/12 10:11:57;;;;;;;23.65;8.63;;;13.90;94.40;;;;;;5030936;28;20044;-80
2021/10/12 10:14:24;;;;;;;20.95;9.65;;;13.90;94.30;;;;;;5011989;28;20037;-80
2021/10/12 10:16:53;;;;;;;24.05;8.75;;;13.90;94.20;;;;;;5029997;28;20025;-80
2021/10/12 10:19:24;;;;;;;19.95;7.93;;;13.70;94.20;;;;;;5030318;28;20028;-80
2021/10/12 10:21:50;;;;;;;15.07;7.55;;;13.60;94.20;;;;;;5029979;28;20133;-80
2021/10/12 10:24:33;;;;;;;19.42;9.50;;;13.50;94.30;;;;;;5029945;28;20506;-81
2021/10/12 10:27:00;;;;;;;24.75;9.75;;;13.50;94.50;;;;;;5029664;28;20482;-80
2021/10/12 10:29:38;;;;;;;14.82;8.43;;;13.50;94.80;;;;;;5029893;28;20033;-79
2021/10/12 10:32:22;;;;;;;23.92;9.50;;;13.50;94.60;;;;;;5029772;28;20382;-79
2021/10/12 10:35:01;;;;;;;19.92;9.65;;;13.40;94.60;;;;;;5029762;28;20045;-79
2021/10/12 10:37:30;;;;;;;20.23;10.20;;;13.40;94.70;;;;;;5029741;28;20053;-79
2021/10/12 10:39:57;;;;;;;21.35;10.18;;;13.40;94.70;;;;;;5029868;28;20104;-79
2021/10/12 10:42:26;;;;;;;19.50;9.10;;;13.50;94.80;;;;;;5029354;28;20078;-79
2021/10/12 10:45:03;;;;;;;21.52;10.20;;;13.60;94.80;;;;;;5070939;28;20075;-79
2021/10/12 10:47:41;;;;;;;19.17;9.05;;;13.60;94.80;;;;;;5029704;28;20030;-79
2021/10/12 10:50:27;;;;;;;25.65;9.07;;;13.70;94.80;;;;;;5029812;28;20021;-79
2021/10/12 10:52:56;;;;;;;14.98;8.13;;;13.70;94.70;;;;;;5029497;28;20034;-79
2021/10/12 10:55:26;;;;;;;16.55;7.75;;;13.60;94.70;;;;;;5009311;28;20030;-80
2021/10/12 10:58:01;;;;;;;15.13;8.52;;;13.60;94.70;;;;;;5027215;28;20026;-79
2021/10/12 11:00:27;;;;;;;17.20;7.47;;;13.60;94.80;;;;;;5026608;28;20029;-79
2021/10/12 11:02:55;;;;;;;22.13;7.65;;;13.60;94.80;;;;;;5026730;28;20044;-79
2021/10/12 11:05:31;;;;;;;19.67;7.45;;;13.50;94.80;;;;;;5027998;28;20037;-79
2021/10/12 11:08:21;;;;;;;17.25;7.78;;;13.50;94.90;;;;;;5030719;28;20120;-79
2021/10/12 11:10:56;;;;;;;22.63;7.82;;;13.50;95.00;;;;;;5032810;28;20430;-79
2021/10/12 11:13:32;;;;;;;20.27;7.13;;;13.50;95.00;;;;;;5032941;28;20026;-79
2021/10/12 11:15:59;;;;;;;23.73;7.85;;;13.50;95.10;;;;;;5032931;28;20076;-79
2021/10/12 11:18:25;;;;;;;19.35;7.45;;;13.40;95.10;;;;;;5034755;28;20053;-79
2021/10/12 11:20:54;;;;;;;13.25;7.97;;;13.40;95.10;;;;;;5044780;28;20021;-79
2021/10/12 11:23:50;;;;;;;17.30;8.30;;;13.50;95.20;;;;;;5030372;28;20494;-80
2021/10/12 11:26:19;;;;;;;15.90;7.65;;;13.40;95.20;;;;;;5032553;28;21216;-79
2021/10/12 11:28:51;;;;;;;12.23;5.63;;;13.50;95.20;;;;;;5031823;28;20055;-79
2021/10/12 11:31:19;;;;;;;12.40;6.82;;;13.50;95.20;;;;;;5014710;28;20029;-79
2021/10/12 11:33:48;;;;;;;12.20;6.23;;;13.50;95.20;;;;;;5032219;28;20089;-79
2021/10/12 11:36:20;;;;;;;11.48;5.13;;;13.60;95.40;;;;;;5014625;28;20061;-79
2021/10/12 11:38:51;;;;;;;12.00;4.20;;;13.60;95.00;;;;;;5032208;28;20485;-79
2021/10/12 11:41:19;;;;;;;4.82;2.60;;;13.70;94.90;;;;;;5014592;28;20512;-79
2021/10/12 11:43:47;;;;;;;5.55;1.80;;;13.80;94.80;;;;;;5032490;28;20063;-79
2021/10/12 11:46:22;;;;;;;5.95;1.60;;;13.80;94.50;;;;;;5032392;28;20033;-79
2021/10/12 11:48:48;;;;;;;3.65;1.60;;;13.80;94.20;;;;;;5014638;28;20029;-79
2021/10/12 11:51:19;;;;;;;3.15;0.90;;;13.90;94.00;;;;;;4998571;28;20030;-79
2021/10/12 11:53:47;;;;;;;2.08;0.90;;;13.90;93.90;;;;;;5032350;28;20493;-79
2021/10/12 11:56:14;;;;;;;2.83;1.00;;;13.90;93.70;;;;;;5032404;28;20061;-79
2021/10/12 11:58:41;;;;;;;3.17;0.93;;;13.90;93.60;;;;;;5032179;28;20028;-79
2021/10/12 12:01:09;;;;;;;3.17;1.10;;;13.90;93.50;;;;;;5014625;28;20032;-79
2021/10/12 12:03:35;;;;;;;2.30;1.00;;;13.90;93.40;;;;;;5032380;28;20060;-79
2021/10/12 12:06:02;;;;;;;4.03;1.05;;;13.90;93.30;;;;;;5096018;28;20033;-79
2021/10/12 12:08:31;;;;;;;5.10;1.13;;;13.90;93.30;;;;;;5100767;28;20443;-80
2021/10/12 12:10:57;;;;;;;3.80;1.00;;;13.80;93.30;;;;;;5031622;28;20037;-79
2021/10/12 12:13:31;;;;;;;5.25;1.00;;;13.90;93.30;;;;;;5031662;28;20033;-79
2021/10/12 12:15:57;;;;;;;4.40;0.60;;;13.90;93.20;;;;;;5031800;28;20075;-80
2021/10/12 12:18:24;;;;;;;0.90;0.57;;;13.80;93.50;;;;;;5017095;28;20017;-78
2021/10/12 12:21:00;;;;;;;2.88;0.50;;;13.90;93.30;;;;;;5009194;28;20477;-77
2021/10/12 12:23:46;;;;;;;1.00;0.47;;;13.90;93.20;;;;;;5042225;28;20040;-77
2021/10/12 12:26:20;;;;;;;1.17;0.50;;;13.90;93.30;;;;;;5009242;28;20400;-77
2021/10/12 12:28:46;;;;;;;2.50;0.60;;;13.80;93.20;;;;;;5027147;28;20021;-77
2021/10/12 12:31:23;;;;;;;1.77;0.55;;;13.80;93.20;;;;;;5026040;28;20033;-76
2021/10/12 12:33:50;;;;;;;2.60;0.77;;;13.90;93.30;;;;;;5026949;28;20041;-77
2021/10/12 12:36:18;;;;;;;1.48;0.90;;;13.90;93.20;;;;;;5026833;28;20061;-76
2021/10/12 12:38:44;;;;;;;2.72;1.00;;;13.90;93.20;;;;;;5027166;28;20538;-77
2021/10/12 12:41:21;;;;;;;5.50;1.13;;;13.90;93.10;;;;;;5027196;28;20029;-77